createdAt,value
2023-04-01T00:00:16.322Z,9.63
2023-04-01T00:03:18.508Z,9.54
2023-04-01T00:06:20.781Z,9.74
2023-04-01T00:09:22.805Z,9.92
2023-04-01T00:12:26.328Z,9.94
2023-04-01T00:15:28.367Z,9.70
2023-04-01T00:18:30.410Z,9.85
2023-04-01T00:21:32.732Z,9.75
2023-04-01T00:24:34.803Z,9.70
2023-04-01T00:27:36.818Z,9.65
2023-04-01T00:30:39.362Z,9.75
2023-04-01T00:33:42.437Z,9.75
2023-04-01T00:36:44.796Z,9.71
2023-04-01T00:39:47.510Z,9.61
2023-04-01T00:42:49.581Z,9.62
2023-04-01T00:45:51.662Z,9.40
2023-04-01T00:48:56.891Z,9.18
2023-04-01T00:52:02.902Z,9.23
2023-04-01T00:55:08.586Z,9.20
2023-04-01T00:58:16.130Z,9.28
2023-04-01T01:01:18.667Z,9.21
2023-04-01T01:04:32.159Z,9.30
2023-04-01T01:07:34.164Z,9.47
2023-04-01T01:10:40.031Z,9.44
2023-04-01T01:13:54.822Z,9.27
2023-04-01T01:17:11.957Z,9.21
2023-04-01T01:20:35.182Z,9.19
2023-04-01T01:23:57.492Z,9.54
2023-04-01T01:27:13.991Z,9.28
2023-04-01T01:31:08.410Z,9.29
2023-04-01T01:34:23.287Z,9.11
2023-04-01T01:37:28.862Z,8.75
2023-04-01T01:40:34.508Z,9.00
2023-04-01T01:43:45.862Z,8.90
2023-04-01T01:46:50.785Z,8.82
2023-04-01T01:49:55.230Z,8.84
2023-04-01T01:53:13.074Z,8.84
2023-04-01T01:56:15.353Z,8.88
2023-04-01T01:59:22.318Z,8.85
2023-04-01T02:02:26.910Z,8.78
2023-04-01T02:05:32.272Z,9.19
2023-04-01T02:09:05.066Z,9.08
2023-04-01T02:12:10.668Z,8.89
2023-04-01T02:15:18.140Z,8.84
2023-04-01T02:18:21.800Z,8.96
2023-04-01T02:21:26.784Z,8.84
2023-04-01T02:24:32.525Z,8.95
2023-04-01T02:27:34.642Z,9.15
2023-04-01T02:30:39.843Z,9.14
2023-04-01T02:33:43.101Z,9.24
2023-04-01T02:36:45.402Z,9.12
2023-04-01T02:39:47.932Z,8.84
2023-04-01T02:42:49.980Z,8.88
2023-04-01T02:45:51.966Z,8.70
2023-04-01T02:48:54.920Z,8.48
2023-04-01T02:51:56.938Z,8.30
2023-04-01T02:54:59.238Z,8.18
2023-04-01T02:58:01.750Z,8.24
2023-04-01T03:01:04.805Z,8.20
2023-04-01T03:04:06.918Z,8.09
2023-04-01T03:07:11.075Z,7.83
2023-04-01T03:10:13.250Z,7.86
2023-04-01T03:13:15.281Z,7.92
2023-04-01T03:16:18.461Z,7.88
2023-04-01T03:19:20.558Z,7.89
2023-04-01T03:22:22.846Z,8.09
2023-04-01T03:25:25.043Z,8.02
2023-04-01T03:28:27.185Z,7.99
2023-04-01T03:31:29.254Z,8.04
2023-04-01T03:34:32.761Z,8.28
2023-04-01T03:37:34.967Z,8.33
2023-04-01T03:40:39.375Z,8.42
2023-04-01T03:43:42.293Z,8.65
2023-04-01T03:46:44.482Z,8.38
2023-04-01T03:49:46.680Z,8.31
2023-04-01T03:52:48.741Z,8.43
2023-04-01T03:55:52.472Z,8.55
2023-04-01T03:58:54.437Z,8.37
2023-04-01T04:01:56.435Z,8.33
2023-04-01T04:04:58.695Z,8.28
2023-04-01T04:08:04.682Z,8.52
2023-04-01T04:11:08.120Z,8.49
2023-04-01T04:14:12.469Z,8.22
2023-04-01T04:17:17.327Z,8.10
2023-04-01T04:20:19.869Z,8.09
2023-04-01T04:23:22.347Z,7.87
2023-04-01T04:26:24.382Z,8.06
2023-04-01T04:29:32.554Z,8.36
2023-04-01T04:32:36.329Z,8.35
2023-04-01T04:35:38.744Z,8.19
2023-04-01T04:38:40.843Z,7.98
2023-04-01T04:41:43.363Z,7.83
2023-04-01T04:44:45.498Z,7.68
2023-04-01T04:47:47.602Z,8.41
2023-04-01T04:50:51.638Z,8.44
2023-04-01T04:53:55.750Z,8.36
2023-04-01T04:57:07.328Z,8.35
2023-04-01T05:00:16.151Z,8.58
2023-04-01T05:03:39.081Z,8.07
2023-04-01T05:06:41.365Z,8.41
2023-04-01T05:09:43.551Z,8.37
2023-04-01T05:12:45.671Z,8.15
2023-04-01T05:15:52.724Z,8.45
2023-04-01T05:18:55.023Z,8.30
2023-04-01T05:21:57.543Z,8.18
2023-04-01T05:24:59.549Z,8.15
2023-04-01T05:28:01.742Z,8.31
2023-04-01T05:31:07.016Z,8.51
2023-04-01T05:34:14.989Z,8.50
2023-04-01T05:37:17.042Z,8.63
2023-04-01T05:40:19.198Z,8.98
2023-04-01T05:43:21.184Z,9.19
2023-04-01T05:46:25.040Z,8.97
2023-04-01T05:49:34.602Z,8.92
2023-04-01T05:52:38.832Z,9.05
2023-04-01T05:55:40.873Z,9.13
2023-04-01T05:58:43.294Z,9.19
2023-04-01T06:01:45.430Z,9.20
2023-04-01T06:04:48.148Z,9.22
2023-04-01T06:07:57.231Z,9.16
2023-04-01T06:11:02.358Z,9.38
2023-04-01T06:14:23.030Z,9.61
2023-04-01T06:17:47.781Z,9.54
2023-04-01T06:21:12.149Z,9.50
2023-04-01T06:24:43.111Z,9.46
2023-04-01T06:28:18.201Z,9.47
2023-04-01T06:31:45.187Z,9.53
2023-04-01T06:35:19.692Z,9.53
2023-04-01T06:38:37.265Z,9.75
2023-04-01T06:41:54.550Z,9.82
2023-04-01T06:45:20.691Z,9.68
2023-04-01T06:49:28.694Z,9.75
2023-04-01T06:53:18.057Z,9.93
2023-04-01T06:56:43.164Z,10.28
2023-04-01T06:59:53.155Z,10.32
2023-04-01T07:03:09.069Z,10.20
2023-04-01T07:06:32.375Z,10.09
2023-04-01T07:09:42.673Z,9.85
2023-04-01T07:13:46.376Z,10.17
2023-04-01T07:17:02.242Z,10.14
2023-04-01T07:20:33.540Z,10.15
2023-04-01T07:23:45.914Z,10.31
2023-04-01T07:27:20.062Z,10.34
2023-04-01T07:30:25.982Z,10.64
2023-04-01T07:33:48.634Z,10.90
2023-04-01T07:37:02.716Z,10.88
2023-04-01T07:40:50.992Z,10.99
2023-04-01T07:44:25.037Z,11.06
2023-04-01T07:47:47.678Z,11.19
2023-04-01T07:50:57.952Z,11.30
2023-04-01T07:54:09.007Z,11.24
2023-04-01T07:57:39.983Z,11.28
2023-04-01T08:00:52.569Z,11.37
2023-04-01T08:04:17.199Z,11.68
2023-04-01T08:07:27.696Z,11.62
2023-04-01T08:11:23.350Z,11.90
2023-04-01T08:14:54.519Z,11.97
2023-04-01T08:18:33.693Z,11.88
2023-04-01T08:21:50.818Z,11.90
2023-04-01T08:24:55.122Z,12.04
2023-04-01T08:28:15.231Z,12.24
2023-04-01T08:31:26.012Z,12.36
2023-04-01T08:34:39.710Z,12.65
2023-04-01T08:37:49.571Z,12.63
2023-04-01T08:41:05.656Z,12.45
2023-04-01T08:45:01.643Z,12.36
2023-04-01T08:48:09.968Z,12.29
2023-04-01T08:51:33.657Z,11.96
2023-04-01T08:55:04.209Z,12.06
2023-04-01T08:58:48.426Z,12.31
2023-04-01T09:02:36.127Z,12.34
2023-04-01T09:06:12.703Z,12.26
2023-04-01T09:09:20.897Z,13.00
2023-04-01T09:12:31.811Z,13.00
2023-04-01T09:15:48.385Z,13.28
2023-04-01T09:18:50.471Z,13.05
2023-04-01T09:21:52.712Z,12.63
2023-04-01T09:25:16.652Z,12.59
2023-04-01T09:28:35.178Z,12.66
2023-04-01T09:31:46.915Z,12.49
2023-04-01T09:35:25.762Z,12.71
2023-04-01T09:38:39.466Z,12.62
2023-04-01T09:41:49.380Z,12.60
2023-04-01T09:45:00.470Z,12.32
2023-04-01T09:48:22.839Z,11.99
2023-04-01T09:52:20.558Z,11.88
2023-04-01T09:55:48.530Z,11.97
2023-04-01T09:58:56.402Z,12.40
2023-04-01T10:02:23.983Z,12.87
2023-04-01T10:05:44.773Z,12.96
2023-04-01T10:09:16.224Z,13.22
2023-04-01T10:12:32.871Z,13.18
2023-04-01T10:16:05.715Z,12.84
2023-04-01T10:19:40.805Z,12.44
2023-04-01T10:22:58.802Z,12.30
2023-04-01T10:26:23.171Z,12.26
2023-04-01T10:30:09.191Z,12.16
2023-04-01T10:33:47.403Z,12.36
2023-04-01T10:36:53.115Z,12.39
2023-04-01T10:40:31.193Z,12.29
2023-04-01T10:44:26.648Z,12.24
2023-04-01T10:48:03.039Z,12.46
2023-04-01T10:51:37.223Z,12.38
2023-04-01T10:54:50.902Z,12.51
2023-04-01T10:58:48.871Z,12.45
2023-04-01T11:02:43.471Z,12.51
2023-04-01T11:06:27.079Z,12.94
2023-04-01T11:10:03.604Z,12.70
2023-04-01T11:13:48.277Z,12.70
2023-04-01T11:17:10.217Z,12.88
2023-04-01T11:20:21.225Z,13.07
2023-04-01T11:24:04.873Z,12.93
2023-04-01T11:27:27.078Z,12.82
2023-04-01T11:31:00.142Z,12.81
2023-04-01T11:34:24.002Z,13.21
2023-04-01T11:37:38.480Z,13.44
2023-04-01T11:41:29.333Z,13.15
2023-04-01T11:45:31.434Z,13.35
2023-04-01T11:49:07.512Z,13.28
2023-04-01T11:52:29.831Z,13.24
2023-04-01T11:56:04.029Z,13.05
2023-04-01T11:59:15.020Z,13.09
2023-04-01T12:02:21.264Z,12.99
2023-04-01T12:05:29.691Z,13.25
2023-04-01T12:09:05.493Z,13.31
2023-04-01T12:12:34.031Z,13.46
2023-04-01T12:16:12.551Z,13.24
2023-04-01T12:19:33.534Z,13.33
2023-04-01T12:23:14.174Z,13.23
2023-04-01T12:26:37.666Z,13.13
2023-04-01T12:30:17.078Z,13.23
2023-04-01T12:33:54.219Z,13.20
2023-04-01T12:37:14.852Z,13.42
2023-04-01T12:40:38.011Z,13.32
2023-04-01T12:43:40.082Z,13.34
2023-04-01T12:47:06.889Z,13.31
2023-04-01T12:50:33.208Z,13.45
2023-04-01T12:53:49.714Z,13.45
2023-04-01T12:57:12.197Z,13.45
2023-04-01T13:00:47.473Z,13.56
2023-04-01T13:04:22.366Z,13.44
2023-04-01T13:07:39.351Z,13.17
2023-04-01T13:10:53.031Z,13.20
2023-04-01T13:14:31.401Z,13.23
2023-04-01T13:17:52.387Z,13.09
2023-04-01T13:21:16.809Z,13.42
2023-04-01T13:24:51.702Z,13.43
2023-04-01T13:28:02.939Z,13.78
2023-04-01T13:31:14.094Z,14.02
2023-04-01T13:34:48.892Z,14.28
2023-04-01T13:38:26.947Z,14.10
2023-04-01T13:41:40.696Z,14.00
2023-04-01T13:45:11.098Z,13.84
2023-04-01T13:48:33.736Z,14.00
2023-04-01T13:52:04.336Z,13.95
2023-04-01T13:55:31.855Z,14.32
2023-04-01T13:58:40.463Z,14.16
2023-04-01T14:01:51.409Z,14.55
2023-04-01T14:05:41.829Z,14.52
2023-04-01T14:08:48.029Z,14.55
2023-04-01T14:12:05.004Z,14.55
2023-04-01T14:15:36.779Z,14.38
2023-04-01T14:18:55.211Z,14.30
2023-04-01T14:22:01.036Z,14.18
2023-04-01T14:25:24.953Z,14.16
2023-04-01T14:28:29.907Z,13.97
2023-04-01T14:32:09.176Z,13.78
2023-04-01T14:35:27.369Z,13.94
2023-04-01T14:38:36.656Z,13.91
2023-04-01T14:41:56.175Z,13.85
2023-04-01T14:45:49.315Z,14.00
2023-04-01T14:48:58.606Z,14.03
2023-04-01T14:52:25.842Z,13.83
2023-04-01T14:55:45.913Z,13.96
2023-04-01T14:58:58.416Z,13.85
2023-04-01T15:02:28.314Z,13.65
2023-04-01T15:06:17.911Z,13.50
2023-04-01T15:10:20.954Z,13.53
2023-04-01T15:13:35.223Z,13.38
2023-04-01T15:17:10.599Z,13.49
2023-04-01T15:20:32.843Z,13.21
2023-04-01T15:23:46.941Z,13.24
2023-04-01T15:26:56.645Z,13.17
2023-04-01T15:30:18.484Z,12.74
2023-04-01T15:33:35.608Z,12.84
2023-04-01T15:36:57.624Z,12.96
2023-04-01T15:40:52.715Z,12.82
2023-04-01T15:43:54.753Z,12.68
2023-04-01T15:46:59.139Z,12.88
2023-04-01T15:50:27.943Z,12.49
2023-04-01T15:54:13.249Z,12.48
2023-04-01T15:57:28.132Z,12.25
2023-04-01T16:00:44.311Z,12.47
2023-04-01T16:04:23.611Z,12.45
2023-04-01T16:07:45.290Z,12.39
2023-04-01T16:10:47.335Z,12.45
2023-04-01T16:14:14.975Z,12.36
2023-04-01T16:17:43.388Z,12.26
2023-04-01T16:20:57.109Z,12.20
2023-04-01T16:24:10.043Z,12.07
2023-04-01T16:27:19.315Z,11.93
2023-04-01T16:30:39.703Z,11.79
2023-04-01T16:33:57.668Z,11.72
2023-04-01T16:37:14.292Z,11.65
2023-04-01T16:40:44.400Z,11.62
2023-04-01T16:43:56.196Z,11.57
2023-04-01T16:47:09.278Z,11.37
2023-04-01T16:50:26.778Z,11.22
2023-04-01T16:53:47.650Z,11.15
2023-04-01T16:56:57.130Z,10.97
2023-04-01T17:00:24.123Z,10.85
2023-04-01T17:03:45.742Z,10.69
2023-04-01T17:07:00.168Z,10.65
2023-04-01T17:10:08.903Z,10.62
2023-04-01T17:13:37.429Z,10.53
2023-04-01T17:17:02.599Z,10.28
2023-04-01T17:20:05.006Z,10.33
2023-04-01T17:23:40.655Z,10.08
2023-04-01T17:26:55.584Z,10.09
2023-04-01T17:30:26.406Z,10.07
2023-04-01T17:33:55.643Z,9.98
2023-04-01T17:37:11.420Z,9.74
2023-04-01T17:40:32.400Z,9.56
2023-04-01T17:43:51.470Z,9.38
2023-04-01T17:47:17.439Z,9.41
2023-04-01T17:50:49.260Z,9.38
2023-04-01T17:54:35.127Z,9.22
2023-04-01T17:57:54.775Z,9.14
2023-04-01T18:01:22.218Z,9.12
2023-04-01T18:04:37.051Z,8.96
2023-04-01T18:08:07.837Z,8.97
2023-04-01T18:11:40.631Z,8.77
2023-04-01T18:14:45.312Z,8.88
2023-04-01T18:18:22.047Z,8.79
2023-04-01T18:21:45.560Z,8.79
2023-04-01T18:25:14.280Z,8.83
2023-04-01T18:28:45.670Z,8.76
2023-04-01T18:31:59.101Z,8.68
2023-04-01T18:35:40.998Z,8.57
2023-04-01T18:38:55.935Z,8.66
2023-04-01T18:42:45.065Z,8.69
2023-04-01T18:45:54.955Z,8.69
2023-04-01T18:49:19.254Z,8.73
2023-04-01T18:52:44.539Z,8.64
2023-04-01T18:55:59.415Z,8.69
2023-04-01T18:59:19.815Z,8.72
2023-04-01T19:02:42.941Z,8.62
2023-04-01T19:05:49.623Z,8.97
2023-04-01T19:08:54.915Z,8.71
2023-04-01T19:12:10.728Z,8.74
2023-04-01T19:15:49.804Z,8.89
2023-04-01T19:19:12.319Z,8.70
2023-04-01T19:22:53.803Z,8.61
2023-04-01T19:26:02.898Z,8.69
2023-04-01T19:29:36.628Z,8.42
2023-04-01T19:33:01.419Z,8.27
2023-04-01T19:36:38.449Z,8.14
2023-04-01T19:40:04.689Z,8.27
2023-04-01T19:43:34.892Z,8.43
2023-04-01T19:47:01.207Z,8.25
2023-04-01T19:50:37.164Z,8.12
2023-04-01T19:53:53.095Z,8.14
2023-04-01T19:57:17.353Z,8.09
2023-04-01T20:00:54.091Z,8.31
2023-04-01T20:04:08.666Z,8.16
2023-04-01T20:07:29.269Z,8.13
2023-04-01T20:10:41.869Z,8.10
2023-04-01T20:14:14.680Z,7.96
2023-04-01T20:17:32.556Z,8.16
2023-04-01T20:20:36.836Z,8.16
2023-04-01T20:23:49.662Z,8.14
2023-04-01T20:27:06.486Z,8.11
2023-04-01T20:30:37.897Z,8.26
2023-04-01T20:34:19.674Z,8.50
2023-04-01T20:37:36.898Z,8.60
2023-04-01T20:40:44.709Z,8.39
2023-04-01T20:44:02.551Z,8.21
2023-04-01T20:47:22.754Z,8.24
2023-04-01T20:50:53.379Z,8.40
2023-04-01T20:54:17.424Z,8.51
2023-04-01T20:57:27.719Z,8.41
2023-04-01T21:00:45.194Z,8.38
2023-04-01T21:04:25.055Z,8.40
2023-04-01T21:07:40.679Z,8.28
2023-04-01T21:10:51.297Z,8.36
2023-04-01T21:13:59.458Z,8.35
2023-04-01T21:17:05.490Z,8.39
2023-04-01T21:20:14.677Z,8.31
2023-04-01T21:23:30.370Z,8.35
2023-04-01T21:27:09.877Z,8.55
2023-04-01T21:30:41.641Z,8.42
2023-04-01T21:34:21.104Z,8.38
2023-04-01T21:37:47.952Z,8.48
2023-04-01T21:41:27.396Z,7.82
2023-04-01T21:44:54.877Z,8.31
2023-04-01T21:48:21.530Z,8.19
2023-04-01T21:51:45.104Z,8.32
2023-04-01T21:55:22.967Z,8.12
2023-04-01T21:58:44.944Z,8.10
2023-04-01T22:01:49.823Z,8.14
2023-04-01T22:05:06.706Z,8.04
2023-04-01T22:08:35.305Z,8.05
2023-04-01T22:11:57.565Z,8.02
2023-04-01T22:15:26.797Z,7.95
2023-04-01T22:18:36.084Z,7.93
2023-04-01T22:21:42.827Z,7.88
2023-04-01T22:24:51.802Z,7.80
2023-04-01T22:28:08.144Z,7.59
2023-04-01T22:31:14.994Z,7.74
2023-04-01T22:34:51.388Z,7.83
2023-04-01T22:38:04.465Z,7.93
2023-04-01T22:41:22.128Z,7.92
2023-04-01T22:44:36.793Z,7.88
2023-04-01T22:47:57.936Z,7.91
2023-04-01T22:51:46.227Z,7.92
2023-04-01T22:54:53.835Z,8.26
2023-04-01T22:58:06.069Z,8.44
2023-04-01T23:01:16.430Z,8.33
2023-04-01T23:04:25.320Z,8.24
2023-04-01T23:08:01.503Z,8.32
2023-04-01T23:11:07.481Z,8.22
2023-04-01T23:14:24.970Z,8.26
2023-04-01T23:17:38.344Z,8.24
2023-04-01T23:20:55.372Z,8.27
2023-04-01T23:24:15.860Z,8.24
2023-04-01T23:27:29.442Z,8.38
2023-04-01T23:30:40.707Z,8.38
2023-04-01T23:33:42.717Z,8.33
2023-04-01T23:36:50.468Z,8.26
2023-04-01T23:39:54.429Z,8.31
2023-04-01T23:42:56.884Z,8.46
2023-04-01T23:46:04.021Z,8.37
2023-04-01T23:49:23.024Z,8.38
2023-04-01T23:52:28.068Z,8.31
2023-04-01T23:55:34.579Z,8.33
2023-04-01T23:58:42.984Z,8.28
